Time;durP1;ratioP1;P1;durP2;ratioP2;P2;SDS_P1;SDS_P2;PMS_P1;PMS_P2;Temp;Humidity;BMP_temperature;BMP_pressure;BME280_temperature;BME280_humidity;BME280_pressure;Samples;Min_cycle;Max_cycle;Signal;HPM_P1;HPM_P2
2023/12/31 00:01:14;;;;;;;7.22;4.28;;;;;;;;;;4962677;28;20251;-58
2023/12/31 00:04:02;;;;;;;8.27;4.90;;;;;;;;;;4965849;28;20502;-56
2023/12/31 00:06:56;;;;;;;8.65;5.50;;;;;;;;;;4963343;28;20103;-59
2023/12/31 00:09:43;;;;;;;8.35;5.03;;;;;;;;;;4964511;28;20062;-68
2023/12/31 00:12:37;;;;;;;8.75;5.43;;;;;;;;;;4960699;28;20073;-67
2023/12/31 00:15:31;;;;;;;7.65;4.88;;;;;;;;;;4948702;28;20058;-67
2023/12/31 00:18:32;;;;;;;8.07;4.53;;;;;;;;;;4960274;28;20070;-68
2023/12/31 00:21:06;;;;;;;7.25;4.90;;;;;;;;;;4966453;28;20149;-50
2023/12/31 00:23:40;;;;;;;7.65;4.78;;;;;;;;;;4963441;28;22007;-62
2023/12/31 00:26:14;;;;;;;7.57;4.53;;;;;;;;;;4962068;28;20062;-62
2023/12/31 00:28:41;;;;;;;11.40;5.72;;;;;;;;;;4967832;28;20126;-62
2023/12/31 00:31:08;;;;;;;8.90;4.60;;;;;;;;;;4970377;28;20469;-62
2023/12/31 00:33:42;;;;;;;8.15;5.03;;;;;;;;;;4982591;28;20058;-64
2023/12/31 00:36:09;;;;;;;9.70;5.40;;;;;;;;;;4986099;28;20062;-62
2023/12/31 00:38:45;;;;;;;10.35;4.75;;;;;;;;;;4984293;28;20050;-62
2023/12/31 00:41:12;;;;;;;10.93;5.00;;;;;;;;;;4985544;28;20407;-61
2023/12/31 00:43:39;;;;;;;8.10;4.93;;;;;;;;;;4982672;28;20050;-62
2023/12/31 00:46:13;;;;;;;9.95;5.63;;;;;;;;;;4983343;28;20536;-62
2023/12/31 00:48:41;;;;;;;9.82;5.32;;;;;;;;;;4982654;28;20566;-62
2023/12/31 00:51:35;;;;;;;11.20;5.05;;;;;;;;;;4981659;28;20086;-62
2023/12/31 00:54:22;;;;;;;8.75;5.43;;;;;;;;;;4983745;28;21073;-62
2023/12/31 00:57:16;;;;;;;8.35;3.85;;;;;;;;;;4984599;28;20050;-62
2023/12/31 01:00:04;;;;;;;10.50;5.80;;;;;;;;;;4980864;28;20065;-61
2023/12/31 01:02:57;;;;;;;9.90;5.95;;;;;;;;;;4979454;28;20493;-62
2023/12/31 01:05:44;;;;;;;9.70;5.63;;;;;;;;;;4975350;28;20046;-61
2023/12/31 01:08:38;;;;;;;12.38;6.25;;;;;;;;;;4982352;28;20517;-61
2023/12/31 01:11:27;;;;;;;12.35;6.70;;;;;;;;;;4980642;28;20061;-61
2023/12/31 01:14:19;;;;;;;12.70;6.15;;;;;;;;;;4983653;28;20058;-62
2023/12/31 01:17:06;;;;;;;13.38;6.43;;;;;;;;;;4974306;28;20050;-49
2023/12/31 01:20:00;;;;;;;11.27;6.35;;;;;;;;;;4980949;28;20141;-51
2023/12/31 01:22:47;;;;;;;9.55;5.97;;;;;;;;;;4982511;28;20081;-51
2023/12/31 01:25:41;;;;;;;12.52;6.90;;;;;;;;;;4975920;28;20063;-52
2023/12/31 01:28:28;;;;;;;11.85;6.75;;;;;;;;;;4983205;28;20050;-51
2023/12/31 01:31:35;;;;;;;11.98;6.43;;;;;;;;;;4983030;28;20152;-49
2023/12/31 01:34:29;;;;;;;11.70;6.43;;;;;;;;;;4966972;28;20532;-67
2023/12/31 01:37:23;;;;;;;11.88;6.15;;;;;;;;;;4983717;28;20058;-67
2023/12/31 01:40:10;;;;;;;5.45;3.30;;;;;;;;;;4983205;28;20042;-67
2023/12/31 01:43:04;;;;;;;11.82;6.13;;;;;;;;;;4983405;28;20046;-67
2023/12/31 01:45:51;;;;;;;11.40;6.60;;;;;;;;;;4982835;28;20062;-61
2023/12/31 01:48:45;;;;;;;12.40;6.68;;;;;;;;;;4979965;28;20544;-52
2023/12/31 01:51:32;;;;;;;10.98;5.97;;;;;;;;;;4984911;28;20092;-55
2023/12/31 01:54:26;;;;;;;9.65;6.22;;;;;;;;;;4984558;28;20058;-56
2023/12/31 01:57:15;;;;;;;11.90;6.60;;;;;;;;;;4985727;28;20062;-55
2023/12/31 02:00:09;;;;;;;11.23;6.75;;;;;;;;;;4975688;28;20058;-53
2023/12/31 02:02:58;;;;;;;14.87;7.20;;;;;;;;;;4985799;28;20139;-53
2023/12/31 02:05:52;;;;;;;9.57;5.70;;;;;;;;;;4981694;28;20317;-55
2023/12/31 02:08:39;;;;;;;9.18;5.07;;;;;;;;;;4982263;28;20055;-55
2023/12/31 02:11:34;;;;;;;9.43;5.43;;;;;;;;;;4984963;28;20510;-55
2023/12/31 02:14:20;;;;;;;6.35;3.97;;;;;;;;;;4984137;28;20054;-53
2023/12/31 02:17:14;;;;;;;10.70;6.43;;;;;;;;;;4978434;28;20132;-61
2023/12/31 02:20:02;;;;;;;13.43;7.85;;;;;;;;;;4983730;28;20046;-61
2023/12/31 02:23:02;;;;;;;17.30;8.00;;;;;;;;;;4973376;28;20078;-61
2023/12/31 02:26:11;;;;;;;17.10;8.10;;;;;;;;;;4974859;28;20059;-61
2023/12/31 02:29:05;;;;;;;;;;;;;;;;;;4979149;28;20054;-61
2023/12/31 02:31:59;;;;;;;15.45;7.93;;;;;;;;;;4978125;28;19925;-59
2023/12/31 02:34:53;;;;;;;15.45;8.75;;;;;;;;;;4982264;28;20065;-58
2023/12/31 02:37:40;;;;;;;14.40;7.00;;;;;;;;;;4977384;28;20184;-54
2023/12/31 02:40:34;;;;;;;17.80;9.38;;;;;;;;;;4978907;28;20058;-56
2023/12/31 02:43:21;;;;;;;14.88;8.40;;;;;;;;;;4980691;28;20054;-60
2023/12/31 02:46:15;;;;;;;14.15;8.60;;;;;;;;;;4982438;28;20054;-53
2023/12/31 02:49:06;;;;;;;16.83;8.40;;;;;;;;;;4980677;28;20074;-52
2023/12/31 02:51:56;;;;;;;15.75;8.43;;;;;;;;;;4978178;28;20082;-50
2023/12/31 02:54:45;;;;;;;17.38;9.20;;;;;;;;;;4974201;28;20054;-48
2023/12/31 02:57:37;;;;;;;13.90;6.55;;;;;;;;;;4979827;28;20072;-51
2023/12/31 03:00:24;;;;;;;16.25;8.70;;;;;;;;;;4979670;28;20806;-60
2023/12/31 03:03:18;;;;;;;17.08;9.57;;;;;;;;;;4979295;28;20057;-60
2023/12/31 03:06:05;;;;;;;17.65;8.75;;;;;;;;;;4979554;28;20050;-60
2023/12/31 03:09:01;;;;;;;14.65;8.75;;;;;;;;;;4980026;28;20108;-60
2023/12/31 03:11:46;;;;;;;16.33;8.80;;;;;;;;;;4981799;28;20058;-60
2023/12/31 03:14:40;;;;;;;12.85;7.78;;;;;;;;;;4980696;28;20420;-60
2023/12/31 03:17:27;;;;;;;16.65;9.18;;;;;;;;;;4980412;28;20062;-60
2023/12/31 03:20:21;;;;;;;14.40;8.77;;;;;;;;;;4981437;28;20069;-61
2023/12/31 03:23:08;;;;;;;18.85;9.05;;;;;;;;;;4975175;28;20077;-61
2023/12/31 03:26:06;;;;;;;20.67;8.43;;;;;;;;;;4979551;28;20136;-60
2023/12/31 03:29:00;;;;;;;10.55;6.13;;;;;;;;;;4976991;28;20062;-66
2023/12/31 03:32:01;;;;;;;10.70;5.72;;;;;;;;;;4977635;28;20128;-66
2023/12/31 03:34:54;;;;;;;14.25;7.18;;;;;;;;;;4982033;28;20149;-66
2023/12/31 03:37:49;;;;;;;14.55;8.35;;;;;;;;;;4972550;28;20066;-61
2023/12/31 03:40:42;;;;;;;12.75;7.50;;;;;;;;;;4977127;28;20569;-54
2023/12/31 03:43:29;;;;;;;15.02;8.90;;;;;;;;;;4979655;28;20105;-61
2023/12/31 03:46:23;;;;;;;14.82;8.60;;;;;;;;;;4982447;28;20108;-61
2023/12/31 03:49:11;;;;;;;8.95;5.63;;;;;;;;;;4978806;28;20281;-60
2023/12/31 03:52:04;;;;;;;13.75;8.07;;;;;;;;;;4980452;28;20054;-61
2023/12/31 03:54:52;;;;;;;13.55;8.00;;;;;;;;;;4980788;28;20202;-60
2023/12/31 03:57:45;;;;;;;15.02;9.15;;;;;;;;;;4977402;28;20051;-54
2023/12/31 04:00:32;;;;;;;15.80;8.52;;;;;;;;;;4979152;28;20069;-51
2023/12/31 04:03:26;;;;;;;14.77;8.48;;;;;;;;;;4979254;28;20050;-55
2023/12/31 04:06:13;;;;;;;17.42;9.13;;;;;;;;;;4978088;28;20096;-57
2023/12/31 04:09:07;;;;;;;15.23;9.02;;;;;;;;;;4974157;28;20054;-60
2023/12/31 04:11:54;;;;;;;14.45;8.13;;;;;;;;;;4979866;28;20057;-57
2023/12/31 04:14:48;;;;;;;14.57;8.93;;;;;;;;;;4980924;28;20082;-58
2023/12/31 04:17:35;;;;;;;14.00;7.75;;;;;;;;;;4977337;28;20058;-56
2023/12/31 04:20:29;;;;;;;15.63;8.90;;;;;;;;;;4975147;28;20058;-57
2023/12/31 04:23:23;;;;;;;14.02;8.30;;;;;;;;;;4980407;28;20104;-54
2023/12/31 04:26:17;;;;;;;15.35;7.57;;;;;;;;;;4979599;28;20050;-67
2023/12/31 04:29:04;;;;;;;13.98;8.38;;;;;;;;;;4966367;28;20061;-66
2023/12/31 04:32:05;;;;;;;12.82;7.63;;;;;;;;;;4979194;28;20066;-67
2023/12/31 04:34:52;;;;;;;14.98;8.48;;;;;;;;;;4979264;28;20120;-61
2023/12/31 04:37:46;;;;;;;12.90;8.02;;;;;;;;;;4982630;28;20125;-49
2023/12/31 04:40:40;;;;;;;12.57;8.65;;;;;;;;;;4980180;28;20050;-48
2023/12/31 04:43:34;;;;;;;11.35;6.28;;;;;;;;;;4964763;28;20082;-48
2023/12/31 04:46:28;;;;;;;13.90;6.85;;;;;;;;;;4980725;28;20544;-50
2023/12/31 04:49:16;;;;;;;14.27;8.45;;;;;;;;;;4978328;28;20514;-49
2023/12/31 04:52:10;;;;;;;12.57;5.53;;;;;;;;;;4979750;28;20043;-49
2023/12/31 04:54:57;;;;;;;10.05;6.53;;;;;;;;;;4983234;28;20062;-56
2023/12/31 04:57:51;;;;;;;13.38;7.10;;;;;;;;;;4955497;28;20054;-54
2023/12/31 05:00:38;;;;;;;11.00;5.75;;;;;;;;;;4978321;28;20059;-55
2023/12/31 05:03:32;;;;;;;14.23;8.00;;;;;;;;;;4971576;28;20518;-61
2023/12/31 05:06:19;;;;;;;10.50;6.72;;;;;;;;;;4978729;28;20414;-57
2023/12/31 05:09:13;;;;;;;13.18;8.20;;;;;;;;;;4981551;28;20061;-54
2023/12/31 05:12:07;;;;;;;14.07;8.10;;;;;;;;;;4978911;28;20132;-51
2023/12/31 05:15:01;;;;;;;14.13;8.80;;;;;;;;;;4984837;28;20065;-54
2023/12/31 05:17:48;;;;;;;13.73;7.68;;;;;;;;;;4974672;28;20055;-54
2023/12/31 05:20:42;;;;;;;11.48;6.60;;;;;;;;;;4983505;28;20082;-53
2023/12/31 05:23:30;;;;;;;12.27;7.47;;;;;;;;;;4982366;28;20085;-49
2023/12/31 05:26:23;;;;;;;13.35;7.22;;;;;;;;;;4982383;28;21484;-50
2023/12/31 05:29:10;;;;;;;12.10;6.85;;;;;;;;;;4983724;28;20078;-51
2023/12/31 05:32:11;;;;;;;11.57;6.32;;;;;;;;;;4982700;28;20046;-51
2023/12/31 05:34:58;;;;;;;10.73;6.25;;;;;;;;;;4982107;28;20054;-61
2023/12/31 05:37:52;;;;;;;11.45;6.30;;;;;;;;;;4982667;28;20556;-61
2023/12/31 05:40:39;;;;;;;10.32;5.85;;;;;;;;;;4983801;28;20050;-61
2023/12/31 05:43:33;;;;;;;10.00;6.32;;;;;;;;;;4976070;28;20601;-61
2023/12/31 05:46:20;;;;;;;9.45;6.57;;;;;;;;;;4983456;28;20062;-61
2023/12/31 05:49:14;;;;;;;10.05;6.32;;;;;;;;;;4981798;28;20046;-61
2023/12/31 05:52:03;;;;;;;4.13;2.28;;;;;;;;;;4983943;28;20080;-60
2023/12/31 05:54:56;;;;;;;7.97;5.00;;;;;;;;;;4982824;28;20113;-60
2023/12/31 05:57:50;;;;;;;8.25;5.47;;;;;;;;;;4980555;28;20046;-60
2023/12/31 06:00:37;;;;;;;7.85;4.55;;;;;;;;;;4980843;28;20760;-60
2023/12/31 06:03:31;;;;;;;8.40;5.70;;;;;;;;;;4980797;28;20058;-60
2023/12/31 06:06:20;;;;;;;12.75;7.28;;;;;;;;;;4981841;28;20065;-60
2023/12/31 06:09:12;;;;;;;7.53;4.35;;;;;;;;;;4965075;28;20172;-61
2023/12/31 06:11:59;;;;;;;6.57;3.55;;;;;;;;;;4977905;28;20148;-60
2023/12/31 06:14:53;;;;;;;8.45;4.95;;;;;;;;;;4978636;28;20509;-61
2023/12/31 06:17:48;;;;;;;10.00;5.82;;;;;;;;;;4977347;28;20050;-61
2023/12/31 06:20:41;;;;;;;7.80;4.38;;;;;;;;;;4980545;28;20054;-50
2023/12/31 06:23:35;;;;;;;8.32;4.43;;;;;;;;;;4977973;28;20058;-50
2023/12/31 06:26:22;;;;;;;8.88;5.60;;;;;;;;;;4978567;28;20062;-51
2023/12/31 06:29:16;;;;;;;6.60;3.90;;;;;;;;;;4978610;28;20117;-60
2023/12/31 06:32:03;;;;;;;7.10;4.45;;;;;;;;;;4975773;28;20117;-66
2023/12/31 06:35:04;;;;;;;10.20;5.72;;;;;;;;;;4980571;28;20600;-67
2023/12/31 06:37:51;;;;;;;8.60;5.10;;;;;;;;;;4975246;28;20080;-67
2023/12/31 06:40:45;;;;;;;5.03;3.15;;;;;;;;;;4979116;28;20054;-66
2023/12/31 06:43:32;;;;;;;9.90;4.70;;;;;;;;;;4978651;28;20062;-66
2023/12/31 06:46:26;;;;;;;9.15;4.65;;;;;;;;;;4976312;28;20490;-67
2023/12/31 06:49:14;;;;;;;9.85;4.93;;;;;;;;;;4978468;28;20074;-56
2023/12/31 06:52:07;;;;;;;9.60;5.28;;;;;;;;;;4979822;28;20050;-57
2023/12/31 06:54:55;;;;;;;7.32;4.93;;;;;;;;;;4977260;28;20050;-57
2023/12/31 06:57:49;;;;;;;6.25;4.85;;;;;;;;;;4977860;28;20545;-56
2023/12/31 07:00:35;;;;;;;7.65;4.68;;;;;;;;;;4979206;28;20093;-66
2023/12/31 07:03:29;;;;;;;7.03;3.00;;;;;;;;;;4975823;28;20058;-67
2023/12/31 07:06:17;;;;;;;6.30;4.40;;;;;;;;;;4977630;28;20125;-67
2023/12/31 07:09:10;;;;;;;5.32;3.42;;;;;;;;;;4978145;28;20054;-67
2023/12/31 07:11:57;;;;;;;6.00;4.25;;;;;;;;;;4978536;28;20063;-67
2023/12/31 07:14:51;;;;;;;7.07;4.50;;;;;;;;;;4979483;28;20046;-67
2023/12/31 07:17:38;;;;;;;6.63;3.88;;;;;;;;;;4977558;28;20049;-66
2023/12/31 07:20:32;;;;;;;6.82;4.32;;;;;;;;;;4981615;28;20448;-67
2023/12/31 07:23:19;;;;;;;7.60;4.30;;;;;;;;;;4977359;28;20100;-66
2023/12/31 07:26:23;;;;;;;7.15;4.03;;;;;;;;;;4976650;28;20069;-60
2023/12/31 07:29:16;;;;;;;6.43;3.65;;;;;;;;;;4976868;28;20124;-60
2023/12/31 07:32:10;;;;;;;4.30;2.65;;;;;;;;;;4977253;28;20057;-61
2023/12/31 07:35:10;;;;;;;3.63;2.70;;;;;;;;;;4977885;28;20072;-61
2023/12/31 07:38:06;;;;;;;4.50;2.97;;;;;;;;;;4975844;28;20409;-61
2023/12/31 07:40:51;;;;;;;7.22;3.88;;;;;;;;;;4972082;28;20580;-61
2023/12/31 07:43:45;;;;;;;5.35;3.70;;;;;;;;;;4976729;28;21467;-61
2023/12/31 07:46:32;;;;;;;6.72;4.07;;;;;;;;;;4975595;28;20066;-62
2023/12/31 07:49:26;;;;;;;4.10;2.78;;;;;;;;;;4980924;28;20153;-61
2023/12/31 07:52:15;;;;;;;2.88;2.20;;;;;;;;;;4985389;28;20057;-61
2023/12/31 07:55:09;;;;;;;4.65;3.42;;;;;;;;;;4980361;28;20051;-58
2023/12/31 07:57:55;;;;;;;5.15;3.63;;;;;;;;;;4970130;28;20117;-66
2023/12/31 08:00:49;;;;;;;5.63;3.67;;;;;;;;;;4973295;28;20171;-67
2023/12/31 08:03:36;;;;;;;4.20;2.80;;;;;;;;;;4977812;28;20078;-67
2023/12/31 08:06:30;;;;;;;5.60;3.83;;;;;;;;;;4981243;28;20073;-66
2023/12/31 08:09:17;;;;;;;4.75;3.28;;;;;;;;;;4984399;28;20158;-66
2023/12/31 08:12:11;;;;;;;4.43;2.28;;;;;;;;;;4981203;28;20067;-66
2023/12/31 08:14:58;;;;;;;4.32;2.38;;;;;;;;;;4977617;28;20576;-55
2023/12/31 08:17:52;;;;;;;5.20;3.25;;;;;;;;;;4985465;28;20125;-57
2023/12/31 08:20:46;;;;;;;4.60;3.03;;;;;;;;;;4984838;28;20054;-55
2023/12/31 08:23:33;;;;;;;4.20;3.00;;;;;;;;;;4981874;28;20910;-66
2023/12/31 08:26:27;;;;;;;4.82;3.28;;;;;;;;;;4985107;28;20058;-60
2023/12/31 08:29:14;;;;;;;5.88;3.35;;;;;;;;;;4977529;28;20058;-60
2023/12/31 08:32:08;;;;;;;5.35;3.60;;;;;;;;;;4979781;28;20148;-61
2023/12/31 08:35:02;;;;;;;4.60;2.60;;;;;;;;;;4984229;28;20089;-60
2023/12/31 08:37:56;;;;;;;4.70;3.30;;;;;;;;;;4982559;28;20506;-61
2023/12/31 08:40:50;;;;;;;7.20;3.30;;;;;;;;;;4981646;28;20054;-60
2023/12/31 08:43:37;;;;;;;6.88;3.70;;;;;;;;;;4981561;28;20426;-60
2023/12/31 08:46:31;;;;;;;4.95;2.95;;;;;;;;;;4985469;28;20058;-60
2023/12/31 08:49:18;;;;;;;5.38;2.40;;;;;;;;;;4982015;28;20058;-60
2023/12/31 08:52:12;;;;;;;4.60;2.83;;;;;;;;;;4980771;28;20054;-61
2023/12/31 08:54:59;;;;;;;3.10;2.67;;;;;;;;;;4974492;28;20066;-61
2023/12/31 08:57:53;;;;;;;4.38;3.25;;;;;;;;;;4983673;28;20058;-60
2023/12/31 09:00:41;;;;;;;5.22;3.38;;;;;;;;;;4980773;28;20144;-60
2023/12/31 09:03:34;;;;;;;4.38;3.13;;;;;;;;;;4974800;28;21990;-61
2023/12/31 09:06:22;;;;;;;5.28;3.70;;;;;;;;;;4984518;28;20058;-61
2023/12/31 09:09:15;;;;;;;4.55;2.80;;;;;;;;;;4983053;28;20069;-47
2023/12/31 09:12:02;;;;;;;5.63;2.95;;;;;;;;;;4982997;28;20506;-48
2023/12/31 09:14:56;;;;;;;4.20;2.70;;;;;;;;;;4978565;28;20101;-51
2023/12/31 09:17:50;;;;;;;4.60;3.53;;;;;;;;;;4981234;28;20761;-47
2023/12/31 09:20:37;;;;;;;6.20;3.83;;;;;;;;;;4974747;28;20391;-59
2023/12/31 09:23:31;;;;;;;4.32;2.40;;;;;;;;;;4983218;28;20104;-60
2023/12/31 09:26:18;;;;;;;2.65;1.95;;;;;;;;;;4980634;28;20137;-60
2023/12/31 09:29:13;;;;;;;5.43;3.60;;;;;;;;;;4979753;28;20054;-60
2023/12/31 09:32:06;;;;;;;6.68;3.40;;;;;;;;;;4982788;28;20042;-61
2023/12/31 09:35:00;;;;;;;5.50;3.83;;;;;;;;;;4979219;28;20519;-61
2023/12/31 09:37:51;;;;;;;3.28;2.75;;;;;;;;;;4984039;28;20101;-60
2023/12/31 09:40:44;;;;;;;5.40;3.45;;;;;;;;;;4981818;28;20062;-61
2023/12/31 09:43:32;;;;;;;3.53;2.35;;;;;;;;;;4984120;28;20083;-61
2023/12/31 09:46:31;;;;;;;6.40;3.05;;;;;;;;;;4976654;28;20532;-60
2023/12/31 09:49:29;;;;;;;3.10;2.38;;;;;;;;;;4980930;28;20082;-61
2023/12/31 09:52:24;;;;;;;3.47;2.10;;;;;;;;;;4979149;28;20257;-67
2023/12/31 09:55:11;;;;;;;3.87;3.00;;;;;;;;;;4980896;28;20046;-67
2023/12/31 09:58:05;;;;;;;4.10;3.22;;;;;;;;;;4981793;28;20062;-67
2023/12/31 10:00:52;;;;;;;4.25;3.03;;;;;;;;;;4983634;28;20544;-67
2023/12/31 10:03:46;;;;;;;4.25;2.70;;;;;;;;;;4978995;28;20054;-67
2023/12/31 10:06:37;;;;;;;3.80;2.85;;;;;;;;;;4982937;28;20069;-51
2023/12/31 10:09:31;;;;;;;4.07;2.35;;;;;;;;;;4979777;28;20117;-55
2023/12/31 10:12:27;;;;;;;2.08;1.80;;;;;;;;;;4978939;28;20073;-50
2023/12/31 10:15:20;;;;;;;5.70;3.03;;;;;;;;;;4984190;28;20521;-51
2023/12/31 10:18:13;;;;;;;4.57;2.72;;;;;;;;;;4983858;28;20117;-54
2023/12/31 10:21:00;;;;;;;4.88;3.35;;;;;;;;;;4984182;28;20065;-49
2023/12/31 10:23:54;;;;;;;3.78;2.63;;;;;;;;;;4972544;28;20057;-49
2023/12/31 10:26:42;;;;;;;2.92;2.08;;;;;;;;;;4980840;28;20058;-49
2023/12/31 10:29:35;;;;;;;3.35;2.50;;;;;;;;;;4981648;28;20055;-50
2023/12/31 10:32:29;;;;;;;3.78;2.22;;;;;;;;;;4980211;28;20058;-52
2023/12/31 10:35:23;;;;;;;4.13;2.95;;;;;;;;;;4980800;28;20132;-54
2023/12/31 10:38:10;;;;;;;3.08;2.33;;;;;;;;;;4961857;28;21075;-50
2023/12/31 10:41:09;;;;;;;3.58;2.75;;;;;;;;;;4962387;28;20085;-49
2023/12/31 10:43:58;;;;;;;3.05;2.50;;;;;;;;;;4974357;28;20506;-47
2023/12/31 10:46:59;;;;;;;4.18;2.60;;;;;;;;;;4973275;28;20053;-58
2023/12/31 10:49:46;;;;;;;3.28;2.60;;;;;;;;;;4971141;28;20181;-68
2023/12/31 10:52:42;;;;;;;2.38;1.70;;;;;;;;;;4974575;28;20055;-65
2023/12/31 10:55:30;;;;;;;2.92;2.13;;;;;;;;;;4979148;28;20077;-65
2023/12/31 10:58:31;;;;;;;4.65;2.75;;;;;;;;;;4977086;28;20085;-65
2023/12/31 11:01:18;;;;;;;2.90;2.05;;;;;;;;;;4979986;28;20497;-65
2023/12/31 11:04:14;;;;;;;2.60;1.75;;;;;;;;;;4980456;28;20053;-54
2023/12/31 11:07:03;;;;;;;3.45;1.98;;;;;;;;;;4974565;28;20066;-56
2023/12/31 11:09:57;;;;;;;2.60;2.08;;;;;;;;;;4964791;28;20108;-56
2023/12/31 11:12:48;;;;;;;3.30;2.35;;;;;;;;;;4970006;28;20054;-54
2023/12/31 11:15:38;;;;;;;5.30;2.30;;;;;;;;;;4978000;28;20085;-56
2023/12/31 11:18:38;;;;;;;3.47;2.47;;;;;;;;;;4974031;28;20093;-57
2023/12/31 11:21:46;;;;;;;4.85;2.85;;;;;;;;;;4966422;28;20128;-56
2023/12/31 11:24:40;;;;;;;3.08;2.40;;;;;;;;;;4977635;28;20054;-51
2023/12/31 11:27:28;;;;;;;2.17;1.80;;;;;;;;;;4978394;28;20062;-60
2023/12/31 11:30:40;;;;;;;2.63;1.73;;;;;;;;;;4976766;28;20085;-60
2023/12/31 11:33:42;;;;;;;4.75;2.60;;;;;;;;;;4974789;28;21248;-60
2023/12/31 11:36:43;;;;;;;4.90;2.30;;;;;;;;;;4978796;28;20053;-61
2023/12/31 11:39:37;;;;;;;3.88;2.80;;;;;;;;;;4977212;28;20153;-60
2023/12/31 11:42:25;;;;;;;3.60;2.50;;;;;;;;;;4975067;28;20116;-61
2023/12/31 11:45:36;;;;;;;2.97;2.15;;;;;;;;;;4978309;28;20157;-61
2023/12/31 11:48:25;;;;;;;4.13;2.50;;;;;;;;;;4979792;28;20100;-60
2023/12/31 11:51:20;;;;;;;3.22;2.40;;;;;;;;;;4948710;28;20054;-47
2023/12/31 11:54:11;;;;;;;3.72;2.38;;;;;;;;;;4967814;28;20070;-60
2023/12/31 11:57:06;;;;;;;3.95;2.50;;;;;;;;;;4982660;28;20117;-58
2023/12/31 11:59:54;;;;;;;4.30;2.60;;;;;;;;;;4978885;28;20144;-59
2023/12/31 12:02:50;;;;;;;3.58;2.10;;;;;;;;;;4980121;28;20065;-59
2023/12/31 12:05:36;;;;;;;2.90;2.03;;;;;;;;;;4984015;28;20061;-59
2023/12/31 12:08:30;;;;;;;2.63;1.83;;;;;;;;;;4983215;28;20060;-60
2023/12/31 12:11:17;;;;;;;2.72;1.85;;;;;;;;;;4979215;28;20051;-54
2023/12/31 12:14:12;;;;;;;3.75;2.15;;;;;;;;;;4982043;28;20884;-66
2023/12/31 12:16:59;;;;;;;2.83;2.20;;;;;;;;;;4983629;28;20117;-66
2023/12/31 12:19:53;;;;;;;3.53;2.40;;;;;;;;;;4978089;28;20770;-65
2023/12/31 12:22:41;;;;;;;4.53;2.60;;;;;;;;;;4985654;28;20418;-66
2023/12/31 12:25:35;;;;;;;3.33;1.95;;;;;;;;;;4985273;28;20073;-66
2023/12/31 12:28:23;;;;;;;1.75;1.42;;;;;;;;;;4987365;28;20065;-60
2023/12/31 12:31:17;;;;;;;4.85;2.55;;;;;;;;;;4984577;28;20062;-60
2023/12/31 12:34:10;;;;;;;2.60;2.00;;;;;;;;;;4980355;28;20448;-60
2023/12/31 12:37:03;;;;;;;2.72;2.13;;;;;;;;;;4977335;28;20054;-62
2023/12/31 12:39:57;;;;;;;2.83;1.83;;;;;;;;;;4979235;28;20050;-61
2023/12/31 12:42:50;;;;;;;3.85;2.40;;;;;;;;;;4981155;28;20073;-58
2023/12/31 12:45:45;;;;;;;2.95;2.33;;;;;;;;;;4980491;28;20493;-52
2023/12/31 12:48:31;;;;;;;3.70;2.40;;;;;;;;;;4979696;28;20104;-57
2023/12/31 12:51:25;;;;;;;2.25;1.80;;;;;;;;;;4982933;28;20050;-56
2023/12/31 12:54:13;;;;;;;3.03;1.95;;;;;;;;;;4980969;28;20050;-56
2023/12/31 12:57:06;;;;;;;2.22;1.70;;;;;;;;;;4981741;28;20407;-58
2023/12/31 12:59:53;;;;;;;2.88;2.00;;;;;;;;;;4981121;28;20046;-59
2023/12/31 13:02:47;;;;;;;2.30;1.95;;;;;;;;;;4980583;28;20505;-59
2023/12/31 13:05:42;;;;;;;2.77;1.83;;;;;;;;;;4980743;28;20158;-66
2023/12/31 13:08:35;;;;;;;2.60;1.63;;;;;;;;;;4980201;28;20611;-57
2023/12/31 13:11:29;;;;;;;3.08;2.00;;;;;;;;;;4981566;28;20494;-55
2023/12/31 13:14:23;;;;;;;2.63;1.80;;;;;;;;;;4982742;28;20466;-54
2023/12/31 13:17:10;;;;;;;2.75;1.70;;;;;;;;;;4977856;28;20426;-50
2023/12/31 13:20:05;;;;;;;1.90;1.70;;;;;;;;;;4976747;28;20078;-51
2023/12/31 13:22:52;;;;;;;3.22;1.70;;;;;;;;;;4983689;28;20144;-50
2023/12/31 13:25:45;;;;;;;3.75;2.17;;;;;;;;;;4979584;28;20049;-65
2023/12/31 13:28:32;;;;;;;2.13;1.67;;;;;;;;;;4979520;28;20141;-67
2023/12/31 13:31:37;;;;;;;2.63;1.92;;;;;;;;;;4980949;28;20475;-66
2023/12/31 13:34:31;;;;;;;1.77;1.20;;;;;;;;;;4965143;28;20070;-58
2023/12/31 13:37:24;;;;;;;2.47;1.38;;;;;;;;;;4981075;28;20138;-57
2023/12/31 13:40:12;;;;;;;2.15;1.60;;;;;;;;;;4980099;28;20066;-59
2023/12/31 13:43:06;;;;;;;3.35;2.10;;;;;;;;;;4980562;28;20054;-59
2023/12/31 13:45:53;;;;;;;2.35;2.05;;;;;;;;;;4977821;28;20057;-58
2023/12/31 13:48:47;;;;;;;2.38;2.08;;;;;;;;;;4983152;28;20054;-58
2023/12/31 13:51:35;;;;;;;4.00;1.73;;;;;;;;;;4982246;28;20469;-59
2023/12/31 13:54:29;;;;;;;2.30;1.75;;;;;;;;;;4982993;28;20318;-59
2023/12/31 13:57:16;;;;;;;2.58;2.03;;;;;;;;;;4979929;28;20042;-59
2023/12/31 14:00:11;;;;;;;2.28;1.83;;;;;;;;;;4973038;28;20054;-59
2023/12/31 14:02:58;;;;;;;3.07;2.30;;;;;;;;;;4981949;28;20430;-56
2023/12/31 14:05:52;;;;;;;2.10;1.90;;;;;;;;;;4979348;28;20352;-49
2023/12/31 14:08:40;;;;;;;2.67;2.10;;;;;;;;;;4977374;28;20066;-46
2023/12/31 14:11:41;;;;;;;3.55;2.28;;;;;;;;;;4976898;28;20058;-47
2023/12/31 14:14:34;;;;;;;4.47;2.60;;;;;;;;;;4968308;28;20066;-47
2023/12/31 14:17:28;;;;;;;2.55;1.83;;;;;;;;;;4977066;28;20999;-50
2023/12/31 14:20:17;;;;;;;1.52;1.30;;;;;;;;;;4981961;28;20065;-47
2023/12/31 14:23:09;;;;;;;2.00;1.70;;;;;;;;;;4981057;28;20046;-49
2023/12/31 14:25:56;;;;;;;2.35;1.90;;;;;;;;;;4979027;28;20054;-50
2023/12/31 14:28:50;;;;;;;2.30;1.55;;;;;;;;;;4973716;28;21642;-50
2023/12/31 14:31:38;;;;;;;3.00;1.83;;;;;;;;;;4981118;28;20064;-46
2023/12/31 14:34:38;;;;;;;1.30;1.13;;;;;;;;;;4963224;28;20531;-59
2023/12/31 14:37:25;;;;;;;3.20;1.92;;;;;;;;;;4982309;28;20058;-59
2023/12/31 14:40:19;;;;;;;3.55;2.15;;;;;;;;;;4976629;28;20057;-59
2023/12/31 14:43:07;;;;;;;3.33;2.10;;;;;;;;;;4979505;28;20054;-59
2023/12/31 14:46:01;;;;;;;1.65;1.48;;;;;;;;;;4976760;28;20054;-60
2023/12/31 14:48:48;;;;;;;2.35;1.55;;;;;;;;;;4982796;28;20510;-60
2023/12/31 14:51:42;;;;;;;3.85;2.25;;;;;;;;;;4981771;28;20054;-64
2023/12/31 14:54:30;;;;;;;2.17;1.63;;;;;;;;;;4980244;28;20117;-65
2023/12/31 14:57:23;;;;;;;3.65;1.95;;;;;;;;;;4981127;28;20054;-64
2023/12/31 15:00:11;;;;;;;3.67;1.55;;;;;;;;;;4982935;28;20101;-66
2023/12/31 15:03:04;;;;;;;3.70;2.03;;;;;;;;;;4981797;28;20073;-65
2023/12/31 15:05:51;;;;;;;3.70;2.40;;;;;;;;;;4976828;28;20062;-64
2023/12/31 15:08:49;;;;;;;2.88;2.15;;;;;;;;;;4969597;28;20093;-64
2023/12/31 15:11:33;;;;;;;4.80;2.25;;;;;;;;;;4976610;28;20563;-65
2023/12/31 15:14:26;;;;;;;4.80;2.50;;;;;;;;;;4973512;28;20580;-64
2023/12/31 15:17:13;;;;;;;3.33;2.30;;;;;;;;;;4979275;28;20050;-64
2023/12/31 15:20:07;;;;;;;3.58;2.33;;;;;;;;;;4979858;28;20042;-55
2023/12/31 15:22:55;;;;;;;4.10;2.78;;;;;;;;;;4978917;28;20359;-53
2023/12/31 15:25:50;;;;;;;5.30;2.92;;;;;;;;;;4975326;28;21626;-54
2023/12/31 15:28:42;;;;;;;2.80;2.33;;;;;;;;;;4984070;28;20054;-59
2023/12/31 15:31:30;;;;;;;4.32;2.47;;;;;;;;;;4980339;28;20077;-60
2023/12/31 15:34:30;;;;;;;3.20;2.22;;;;;;;;;;4978052;28;20485;-59
2023/12/31 15:37:17;;;;;;;3.15;2.25;;;;;;;;;;4979852;28;20046;-58
2023/12/31 15:40:24;;;;;;;4.55;2.78;;;;;;;;;;4982062;28;20061;-60
2023/12/31 15:43:12;;;;;;;3.97;2.58;;;;;;;;;;4977758;28;20058;-61
2023/12/31 15:46:06;;;;;;;4.53;2.90;;;;;;;;;;4978381;28;20486;-49
2023/12/31 15:48:53;;;;;;;3.05;2.03;;;;;;;;;;4966095;28;20069;-55
2023/12/31 15:51:47;;;;;;;3.58;2.20;;;;;;;;;;4978535;28;20054;-57
2023/12/31 15:54:34;;;;;;;5.22;2.30;;;;;;;;;;4980864;28;20054;-56
2023/12/31 15:57:28;;;;;;;3.28;2.13;;;;;;;;;;4979374;28;20058;-55
2023/12/31 16:00:22;;;;;;;2.15;1.50;;;;;;;;;;4960875;28;20050;-51
2023/12/31 16:03:16;;;;;;;2.78;2.10;;;;;;;;;;4979197;28;20081;-48
2023/12/31 16:06:03;;;;;;;7.50;2.22;;;;;;;;;;4980306;28;20572;-49
2023/12/31 16:08:57;;;;;;;2.90;2.17;;;;;;;;;;4959661;28;20557;-49
2023/12/31 16:11:45;;;;;;;1.92;1.20;;;;;;;;;;4979632;28;20050;-48
2023/12/31 16:14:38;;;;;;;2.42;1.90;;;;;;;;;;4977077;28;20081;-64
2023/12/31 16:17:25;;;;;;;2.35;1.70;;;;;;;;;;4979803;28;20054;-65
2023/12/31 16:20:19;;;;;;;1.40;1.27;;;;;;;;;;4981826;28;20193;-64
2023/12/31 16:23:06;;;;;;;2.20;1.90;;;;;;;;;;4979340;28;21091;-65
2023/12/31 16:26:00;;;;;;;4.25;2.20;;;;;;;;;;4983151;28;20604;-55
2023/12/31 16:28:48;;;;;;;3.38;1.88;;;;;;;;;;4982970;28;20109;-58
2023/12/31 16:31:42;;;;;;;2.88;1.83;;;;;;;;;;4983588;28;20588;-54
2023/12/31 16:34:36;;;;;;;4.50;1.90;;;;;;;;;;4981068;28;20116;-55
2023/12/31 16:37:30;;;;;;;1.65;1.45;;;;;;;;;;4983574;28;20051;-57
2023/12/31 16:40:17;;;;;;;2.45;2.00;;;;;;;;;;4979041;28;20085;-57
2023/12/31 16:43:11;;;;;;;2.10;1.60;;;;;;;;;;4984458;28;20097;-60
2023/12/31 16:45:58;;;;;;;3.85;1.90;;;;;;;;;;4985565;28;20057;-60
2023/12/31 16:48:52;;;;;;;3.47;1.92;;;;;;;;;;4983770;28;20054;-60
2023/12/31 16:51:39;;;;;;;1.60;1.30;;;;;;;;;;4982706;28;20438;-60
2023/12/31 16:54:33;;;;;;;2.42;1.63;;;;;;;;;;4968243;28;20067;-54
2023/12/31 16:57:27;;;;;;;6.60;3.20;;;;;;;;;;4979316;28;20058;-47
2023/12/31 17:00:21;;;;;;;1.85;1.23;;;;;;;;;;4983879;28;20473;-49
2023/12/31 17:03:08;;;;;;;2.55;1.27;;;;;;;;;;4983885;28;20049;-52